createdAt,value
2023-06-09T00:00:41.478Z,54.57
2023-06-09T00:01:41.588Z,52.56
2023-06-09T00:02:41.747Z,54.79
2023-06-09T00:03:41.685Z,50.47
2023-06-09T00:04:41.686Z,54.38
2023-06-09T00:05:41.744Z,51.08
2023-06-09T00:06:41.782Z,51.11
2023-06-09T00:07:41.836Z,49.44
2023-06-09T00:08:41.915Z,51.02
2023-06-09T00:09:41.971Z,51.01
2023-06-09T00:10:42.030Z,52.85
2023-06-09T00:11:42.061Z,50.78
2023-06-09T00:12:42.171Z,50.78
2023-06-09T00:13:42.183Z,51.04
2023-06-09T00:14:42.238Z,51.19
2023-06-09T00:15:42.277Z,54.23
2023-06-09T00:16:42.449Z,55.49
2023-06-09T00:17:42.464Z,53.05
2023-06-09T00:18:42.487Z,54.26
2023-06-09T00:19:42.552Z,52.52
2023-06-09T00:20:42.601Z,56.32
2023-06-09T00:21:42.651Z,54.29
2023-06-09T00:22:42.746Z,52.67
2023-06-09T00:23:42.844Z,55.60
2023-06-09T00:24:42.867Z,54.86
2023-06-09T00:25:42.922Z,53.48
2023-06-09T00:26:42.990Z,51.02
2023-06-09T00:27:43.081Z,53.15
2023-06-09T00:28:43.094Z,47.46
2023-06-09T00:29:43.173Z,52.15
2023-06-09T00:30:43.219Z,51.58
2023-06-09T00:31:43.384Z,51.91
2023-06-09T00:32:43.417Z,52.89
2023-06-09T00:33:43.394Z,51.02
2023-06-09T00:34:43.442Z,49.65
2023-06-09T00:35:43.500Z,50.97
2023-06-09T00:36:43.555Z,49.70
2023-06-09T00:37:43.633Z,48.24
2023-06-09T00:38:43.685Z,51.41
2023-06-09T00:39:43.718Z,48.27
2023-06-09T00:40:43.797Z,50.95
2023-06-09T00:41:43.836Z,51.51
2023-06-09T00:42:43.922Z,52.29
2023-06-09T00:43:43.959Z,55.79
2023-06-09T00:44:44.027Z,54.73
2023-06-09T00:45:44.142Z,53.97
2023-06-09T00:46:44.191Z,53.42
2023-06-09T00:47:44.246Z,51.97
2023-06-09T00:48:44.308Z,53.08
2023-06-09T00:49:44.326Z,52.25
2023-06-09T00:50:44.378Z,53.82
2023-06-09T00:51:44.453Z,55.48
2023-06-09T00:52:44.535Z,52.79
2023-06-09T00:53:44.521Z,51.04
2023-06-09T00:54:44.621Z,50.84
2023-06-09T00:55:44.656Z,54.42
2023-06-09T00:56:44.733Z,54.41
2023-06-09T00:57:44.800Z,51.11
2023-06-09T00:58:44.858Z,50.91
2023-06-09T00:59:44.973Z,53.11
2023-06-09T01:00:44.996Z,53.83
2023-06-09T01:01:45.133Z,53.72
2023-06-09T01:02:45.262Z,53.23
2023-06-09T01:03:45.161Z,53.44
2023-06-09T01:04:45.209Z,52.78
2023-06-09T01:05:45.318Z,51.62
2023-06-09T01:06:45.323Z,54.66
2023-06-09T01:07:45.383Z,52.57
2023-06-09T01:08:45.458Z,54.51
2023-06-09T01:09:45.487Z,51.06
2023-06-09T01:10:45.601Z,51.58
2023-06-09T01:11:45.633Z,53.93
2023-06-09T01:12:45.695Z,52.99
2023-06-09T01:13:45.806Z,54.82
2023-06-09T01:14:45.814Z,53.22
2023-06-09T01:15:45.889Z,54.31
2023-06-09T01:16:45.956Z,50.41
2023-06-09T01:17:46.041Z,50.19
2023-06-09T01:18:46.037Z,53.83
2023-06-09T01:19:46.088Z,49.88
2023-06-09T01:20:46.155Z,53.41
2023-06-09T01:21:46.248Z,51.70
2023-06-09T01:22:46.277Z,48.68
2023-06-09T01:23:46.398Z,49.45
2023-06-09T01:24:46.419Z,52.20
2023-06-09T01:25:46.463Z,52.65
2023-06-09T01:26:46.507Z,52.24
2023-06-09T01:27:46.558Z,50.86
2023-06-09T01:28:46.623Z,55.64
2023-06-09T01:29:46.650Z,54.31
2023-06-09T01:30:46.733Z,57.39
2023-06-09T01:31:46.814Z,54.28
2023-06-09T01:32:46.912Z,51.98
2023-06-09T01:33:46.916Z,51.65
2023-06-09T01:34:46.929Z,53.21
2023-06-09T01:35:47.000Z,53.60
2023-06-09T01:36:47.045Z,51.73
2023-06-09T01:37:47.090Z,51.86
2023-06-09T01:38:47.153Z,50.33
2023-06-09T01:39:47.215Z,51.90
2023-06-09T01:40:47.234Z,48.89
2023-06-09T01:41:47.281Z,52.86
2023-06-09T01:42:47.343Z,51.10
2023-06-09T01:43:47.387Z,50.23
2023-06-09T01:44:47.440Z,49.95
2023-06-09T01:45:47.544Z,53.69
2023-06-09T01:46:47.520Z,51.34
2023-06-09T01:47:47.684Z,53.30
2023-06-09T01:48:47.615Z,52.67
2023-06-09T01:49:47.700Z,51.40
2023-06-09T01:50:47.734Z,53.20
2023-06-09T01:51:47.802Z,53.58
2023-06-09T01:52:47.859Z,52.61
2023-06-09T01:53:47.892Z,51.55
2023-06-09T01:54:47.980Z,54.12
2023-06-09T01:55:48.023Z,54.08
2023-06-09T01:56:48.057Z,52.49
2023-06-09T01:57:48.127Z,56.18
2023-06-09T01:58:48.143Z,52.64
2023-06-09T01:59:48.217Z,55.10
2023-06-09T02:00:48.238Z,56.46
2023-06-09T02:01:48.355Z,54.04
2023-06-09T02:02:48.400Z,57.04
2023-06-09T02:03:48.427Z,54.14
2023-06-09T02:04:50.935Z,51.30
2023-06-09T02:05:48.452Z,54.60
2023-06-09T02:06:48.459Z,54.46
2023-06-09T02:07:48.466Z,52.87
2023-06-09T02:08:48.443Z,51.01
2023-06-09T02:09:48.413Z,52.43
2023-06-09T02:10:48.431Z,52.36
2023-06-09T02:11:48.430Z,49.40
2023-06-09T02:12:48.391Z,50.85
2023-06-09T02:13:48.427Z,51.67
2023-06-09T02:14:48.395Z,50.69
2023-06-09T02:15:48.438Z,49.77
2023-06-09T02:16:48.450Z,53.09
2023-06-09T02:17:48.443Z,51.58
2023-06-09T02:18:48.356Z,51.11
2023-06-09T02:19:48.335Z,51.26
2023-06-09T02:20:48.354Z,54.43
2023-06-09T02:21:48.363Z,53.51
2023-06-09T02:22:48.322Z,53.27
2023-06-09T02:23:48.350Z,53.94
2023-06-09T02:24:48.316Z,49.11
2023-06-09T02:25:48.331Z,52.66
2023-06-09T02:26:48.282Z,53.94
2023-06-09T02:27:48.274Z,48.71
2023-06-09T02:28:48.335Z,53.40
2023-06-09T02:29:48.291Z,52.69
2023-06-09T02:30:48.274Z,53.43
2023-06-09T02:31:48.374Z,50.85
2023-06-09T02:32:48.314Z,53.99
2023-06-09T02:33:48.249Z,48.66
2023-06-09T02:34:48.240Z,50.63
2023-06-09T02:35:48.251Z,52.07
2023-06-09T02:36:48.197Z,51.35
2023-06-09T02:37:48.207Z,51.43
2023-06-09T02:38:48.208Z,50.44
2023-06-09T02:39:48.284Z,51.30
2023-06-09T02:40:48.180Z,51.99
2023-06-09T02:41:48.194Z,53.45
2023-06-09T02:42:48.196Z,51.38
2023-06-09T02:43:48.186Z,49.46
2023-06-09T02:44:48.177Z,51.23
2023-06-09T02:45:48.247Z,51.67
2023-06-09T02:46:48.165Z,54.10
2023-06-09T02:47:48.881Z,53.78
2023-06-09T02:48:48.264Z,51.85
2023-06-09T02:49:48.294Z,52.71
2023-06-09T02:50:48.360Z,51.85
2023-06-09T02:51:48.498Z,49.81
2023-06-09T02:52:48.432Z,50.58
2023-06-09T02:53:48.477Z,49.02
2023-06-09T02:54:48.559Z,52.85
2023-06-09T02:55:48.563Z,49.33
2023-06-09T02:56:48.640Z,51.03
2023-06-09T02:57:48.688Z,50.41
2023-06-09T02:58:48.716Z,50.60
2023-06-09T02:59:48.825Z,49.03
2023-06-09T03:00:48.872Z,49.64
2023-06-09T03:01:48.852Z,49.39
2023-06-09T03:02:48.899Z,49.99
2023-06-09T03:03:48.943Z,51.59
2023-06-09T03:04:48.933Z,50.40
2023-06-09T03:05:48.929Z,52.19
2023-06-09T03:06:48.996Z,51.93
2023-06-09T03:07:48.987Z,51.38
2023-06-09T03:08:48.984Z,53.79
2023-06-09T03:09:49.052Z,51.38
2023-06-09T03:10:49.070Z,52.60
2023-06-09T03:11:49.135Z,51.18
2023-06-09T03:12:49.088Z,52.49
2023-06-09T03:13:49.128Z,50.50
2023-06-09T03:14:49.151Z,50.37
2023-06-09T03:15:49.181Z,50.91
2023-06-09T03:16:49.307Z,51.78
2023-06-09T03:17:49.329Z,52.44
2023-06-09T03:18:49.265Z,52.08
2023-06-09T03:19:49.286Z,53.08
2023-06-09T03:20:49.308Z,48.15
2023-06-09T03:21:49.347Z,51.28
2023-06-09T03:22:49.358Z,52.35
2023-06-09T03:23:49.423Z,48.48
2023-06-09T03:24:49.449Z,51.64
2023-06-09T03:25:49.443Z,46.63
2023-06-09T03:26:49.524Z,50.03
2023-06-09T03:27:49.494Z,50.29
2023-06-09T03:28:49.601Z,50.27
2023-06-09T03:29:49.568Z,49.79
2023-06-09T03:30:49.629Z,50.83
2023-06-09T03:31:49.652Z,52.44
2023-06-09T03:32:49.738Z,51.36
2023-06-09T03:33:49.741Z,51.01
2023-06-09T03:34:49.801Z,47.79
2023-06-09T03:35:49.828Z,53.22
2023-06-09T03:36:49.858Z,49.19
2023-06-09T03:37:49.911Z,50.78
2023-06-09T03:38:49.942Z,51.60
2023-06-09T03:39:49.953Z,52.53
2023-06-09T03:40:50.062Z,48.06
2023-06-09T03:41:50.090Z,50.66
2023-06-09T03:42:50.164Z,46.01
2023-06-09T03:43:50.181Z,49.39
2023-06-09T03:44:50.285Z,48.46
2023-06-09T03:45:50.322Z,48.13
2023-06-09T03:46:50.403Z,47.24
2023-06-09T03:47:50.425Z,46.15
2023-06-09T03:48:50.458Z,44.10
2023-06-09T03:49:50.488Z,41.15
2023-06-09T03:50:50.568Z,44.11
2023-06-09T03:51:50.566Z,43.84
2023-06-09T03:52:50.599Z,43.54
2023-06-09T03:53:50.656Z,47.50
2023-06-09T03:54:50.648Z,47.76
2023-06-09T03:55:50.668Z,48.75
2023-06-09T03:56:50.695Z,46.48
2023-06-09T03:57:50.741Z,46.82
2023-06-09T03:58:50.831Z,48.67
2023-06-09T03:59:50.814Z,49.15
2023-06-09T04:00:50.893Z,47.41
2023-06-09T04:01:51.001Z,49.54
2023-06-09T04:02:50.978Z,48.73
2023-06-09T04:03:51.034Z,41.19
2023-06-09T04:04:51.063Z,40.60
2023-06-09T04:05:51.109Z,29.18
2023-06-09T04:06:51.184Z,27.15
2023-06-09T04:07:51.678Z,25.00
2023-06-09T04:08:51.219Z,25.36
2023-06-09T04:09:51.274Z,25.00
2023-06-09T04:10:51.303Z,25.00
2023-06-09T04:11:51.384Z,25.00
2023-06-09T04:12:51.424Z,25.14
2023-06-09T04:13:51.449Z,25.02
2023-06-09T04:14:51.440Z,26.26
2023-06-09T04:15:51.456Z,29.22
2023-06-09T04:16:51.573Z,28.56
2023-06-09T04:17:51.640Z,29.91
2023-06-09T04:18:51.612Z,25.00
2023-06-09T04:19:51.610Z,29.45
2023-06-09T04:20:51.644Z,25.86
2023-06-09T04:21:51.640Z,25.00
2023-06-09T04:22:51.691Z,25.22
2023-06-09T04:23:51.681Z,25.00
2023-06-09T04:24:51.704Z,25.00
2023-06-09T04:25:51.737Z,25.00
2023-06-09T04:26:51.779Z,25.22
2023-06-09T04:27:51.842Z,25.00
2023-06-09T04:28:51.854Z,25.27
2023-06-09T04:29:51.937Z,26.22
2023-06-09T04:30:51.935Z,25.00
2023-06-09T04:31:52.017Z,25.00
2023-06-09T04:32:52.010Z,25.82
2023-06-09T04:33:52.033Z,27.23
2023-06-09T04:34:52.072Z,29.94
2023-06-09T04:35:52.098Z,32.84
2023-06-09T04:36:52.121Z,32.53
2023-06-09T04:37:52.126Z,40.52
2023-06-09T04:38:52.172Z,40.44
2023-06-09T04:39:52.205Z,47.91
2023-06-09T04:40:52.233Z,52.62
2023-06-09T04:41:52.250Z,48.95
2023-06-09T04:42:52.273Z,49.38
2023-06-09T04:43:52.283Z,61.07
2023-06-09T04:44:52.308Z,56.95
2023-06-09T04:45:52.440Z,58.36
2023-06-09T04:46:52.482Z,64.87
2023-06-09T04:47:52.468Z,63.98
2023-06-09T04:48:52.501Z,67.62
2023-06-09T04:49:52.549Z,74.13
2023-06-09T04:50:52.548Z,78.07
2023-06-09T04:51:52.572Z,83.29
2023-06-09T04:52:52.586Z,87.60
2023-06-09T04:53:52.594Z,91.97
2023-06-09T04:54:52.764Z,90.85
2023-06-09T04:55:52.621Z,100.38
2023-06-09T04:56:52.653Z,97.67
2023-06-09T04:57:52.681Z,104.32
2023-06-09T04:58:52.801Z,110.41
2023-06-09T04:59:53.273Z,114.72
2023-06-09T05:00:52.863Z,120.06
2023-06-09T05:01:52.997Z,128.27
2023-06-09T05:02:53.006Z,128.91
2023-06-09T05:03:52.986Z,118.56
2023-06-09T05:04:53.055Z,115.95
2023-06-09T05:05:53.124Z,113.58
2023-06-09T05:06:53.026Z,108.24
2023-06-09T05:07:53.079Z,105.45
2023-06-09T05:08:53.116Z,102.15
2023-06-09T05:09:53.128Z,96.52
2023-06-09T05:10:53.167Z,98.50
2023-06-09T05:11:53.207Z,91.59
2023-06-09T05:12:53.259Z,90.55
2023-06-09T05:13:53.329Z,91.47
2023-06-09T05:14:53.364Z,91.47
2023-06-09T05:15:53.478Z,88.81
2023-06-09T05:16:53.491Z,88.11
2023-06-09T05:17:53.531Z,86.81
2023-06-09T05:18:53.537Z,88.00
2023-06-09T05:19:53.564Z,85.82
2023-06-09T05:20:53.629Z,89.36
2023-06-09T05:21:53.620Z,90.83
2023-06-09T05:22:53.615Z,90.25
2023-06-09T05:23:53.649Z,89.41
2023-06-09T05:24:53.629Z,92.25
2023-06-09T05:25:53.644Z,92.04
2023-06-09T05:26:53.604Z,95.70
2023-06-09T05:27:53.629Z,96.01
2023-06-09T05:28:53.623Z,96.64
2023-06-09T05:29:53.643Z,95.22
2023-06-09T05:30:53.657Z,96.74
2023-06-09T05:31:53.747Z,98.83
2023-06-09T05:32:53.695Z,94.89
2023-06-09T05:33:53.621Z,100.44
2023-06-09T05:34:53.649Z,101.47
2023-06-09T05:35:53.655Z,102.57
2023-06-09T05:36:53.646Z,100.84
2023-06-09T05:37:53.662Z,104.28
2023-06-09T05:38:53.655Z,106.47
2023-06-09T05:39:53.679Z,106.49
2023-06-09T05:40:53.651Z,104.34
2023-06-09T05:41:53.695Z,110.77
2023-06-09T05:42:53.703Z,107.34
2023-06-09T05:43:53.726Z,108.25
2023-06-09T05:44:53.765Z,107.68
2023-06-09T05:45:53.766Z,107.06
2023-06-09T05:46:53.745Z,108.23
2023-06-09T05:47:53.825Z,107.88
2023-06-09T05:48:53.802Z,110.67
2023-06-09T05:49:53.788Z,111.23
2023-06-09T05:50:53.791Z,111.88
2023-06-09T05:51:53.790Z,111.61
2023-06-09T05:52:53.806Z,111.10
2023-06-09T05:53:53.807Z,113.26
2023-06-09T05:54:53.845Z,115.92
2023-06-09T05:55:53.856Z,114.28
2023-06-09T05:56:53.893Z,112.13
2023-06-09T05:57:53.826Z,114.87
2023-06-09T05:58:53.878Z,114.89
2023-06-09T05:59:53.833Z,115.40
2023-06-09T06:00:53.887Z,113.47
2023-06-09T06:01:53.953Z,114.58
2023-06-09T06:02:53.977Z,115.91
2023-06-09T06:03:53.945Z,118.20
2023-06-09T06:04:53.870Z,115.02
2023-06-09T06:05:53.877Z,116.16
2023-06-09T06:06:53.889Z,113.53
2023-06-09T06:07:53.897Z,117.07
2023-06-09T06:08:53.946Z,115.61
2023-06-09T06:09:53.913Z,113.45
2023-06-09T06:10:53.910Z,113.14
2023-06-09T06:11:53.927Z,119.02
2023-06-09T06:12:53.926Z,116.23
2023-06-09T06:13:53.942Z,115.70
2023-06-09T06:14:53.941Z,115.13
2023-06-09T06:15:53.971Z,114.69
2023-06-09T06:16:54.003Z,114.23
2023-06-09T06:17:54.034Z,112.47
2023-06-09T06:18:54.015Z,112.79
2023-06-09T06:19:54.026Z,116.26
2023-06-09T06:20:54.033Z,114.48
2023-06-09T06:21:54.061Z,118.07
2023-06-09T06:22:54.068Z,118.68
2023-06-09T06:23:54.109Z,119.19
2023-06-09T06:24:54.070Z,116.14
2023-06-09T06:25:54.128Z,117.89
2023-06-09T06:26:54.145Z,117.60
2023-06-09T06:27:54.135Z,119.66
2023-06-09T06:28:54.151Z,117.20
2023-06-09T06:29:54.159Z,120.81
2023-06-09T06:30:54.185Z,122.40
2023-06-09T06:31:54.252Z,120.68
2023-06-09T06:32:54.597Z,122.18
2023-06-09T06:33:54.251Z,123.08
2023-06-09T06:34:54.257Z,120.75
2023-06-09T06:35:54.253Z,118.01
2023-06-09T06:36:54.303Z,119.82
2023-06-09T06:37:54.333Z,124.95
2023-06-09T06:38:54.338Z,123.61
2023-06-09T06:39:54.312Z,124.18
2023-06-09T06:40:54.326Z,123.21
2023-06-09T06:41:54.345Z,118.04
2023-06-09T06:42:54.374Z,124.08
2023-06-09T06:43:54.373Z,120.60
2023-06-09T06:44:56.305Z,126.15
2023-06-09T06:45:54.444Z,123.76
2023-06-09T06:46:54.424Z,123.06
2023-06-09T06:47:54.414Z,121.81
2023-06-09T06:48:54.341Z,122.99
2023-06-09T06:49:54.342Z,124.48
2023-06-09T06:50:54.338Z,123.26
2023-06-09T06:51:54.351Z,120.85
2023-06-09T06:52:54.317Z,124.23
2023-06-09T06:53:54.285Z,124.71
2023-06-09T06:54:54.297Z,121.93
2023-06-09T06:55:54.314Z,123.50
2023-06-09T06:56:54.261Z,127.34
2023-06-09T06:57:54.281Z,124.92
2023-06-09T06:58:54.254Z,124.87
2023-06-09T06:59:54.244Z,124.05
2023-06-09T07:00:54.315Z,127.38
2023-06-09T07:01:54.268Z,126.03
2023-06-09T07:02:54.298Z,123.71
2023-06-09T07:03:54.263Z,125.05
2023-06-09T07:04:54.215Z,126.80
2023-06-09T07:05:54.240Z,124.57
2023-06-09T07:06:54.295Z,127.15
2023-06-09T07:07:54.205Z,130.59
2023-06-09T07:08:54.182Z,127.05
2023-06-09T07:09:54.257Z,129.59
2023-06-09T07:10:54.202Z,126.30
2023-06-09T07:11:54.238Z,127.77
2023-06-09T07:12:54.176Z,126.05
2023-06-09T07:13:54.147Z,130.18
2023-06-09T07:14:54.151Z,129.58
2023-06-09T07:15:54.121Z,129.54
2023-06-09T07:16:54.115Z,133.61
2023-06-09T07:17:54.209Z,133.01
2023-06-09T07:18:54.303Z,131.88
2023-06-09T07:19:54.124Z,133.78
2023-06-09T07:20:54.076Z,135.70
2023-06-09T07:21:54.103Z,137.19
2023-06-09T07:22:54.099Z,136.79
2023-06-09T07:23:54.094Z,140.54
2023-06-09T07:24:54.086Z,136.96
2023-06-09T07:25:54.101Z,141.61
2023-06-09T07:26:54.062Z,142.18
2023-06-09T07:27:54.073Z,142.60
2023-06-09T07:28:54.101Z,140.15
2023-06-09T07:29:54.046Z,144.30
2023-06-09T07:30:54.059Z,146.89
2023-06-09T07:31:54.100Z,143.28
2023-06-09T07:32:54.027Z,142.42
2023-06-09T07:33:54.006Z,148.22
2023-06-09T07:34:54.110Z,142.99
2023-06-09T07:35:53.994Z,142.28
2023-06-09T07:36:53.986Z,143.32
2023-06-09T07:37:53.977Z,145.61
2023-06-09T07:38:54.013Z,146.68
2023-06-09T07:40:01.529Z,144.64
2023-06-09T07:40:54.934Z,144.68
2023-06-09T07:41:54.042Z,145.05
2023-06-09T07:42:53.924Z,143.80
2023-06-09T07:43:53.930Z,139.25
2023-06-09T07:44:53.925Z,140.60
2023-06-09T07:45:53.960Z,138.45
2023-06-09T07:46:53.918Z,139.59
2023-06-09T07:47:53.957Z,138.15
2023-06-09T07:48:53.910Z,140.11
2023-06-09T07:49:53.876Z,136.72
2023-06-09T07:51:01.335Z,137.28
2023-06-09T07:51:54.965Z,137.45
2023-06-09T07:52:54.006Z,137.54
2023-06-09T07:53:53.868Z,137.48
2023-06-09T07:54:53.882Z,137.68
2023-06-09T07:55:53.852Z,135.08
2023-06-09T07:56:53.897Z,133.37
2023-06-09T07:57:53.818Z,133.22
2023-06-09T07:58:53.812Z,134.49
2023-06-09T07:59:53.809Z,130.37
2023-06-09T08:00:53.820Z,129.07
2023-06-09T08:01:53.822Z,128.95
2023-06-09T08:02:53.856Z,126.33
2023-06-09T08:03:53.879Z,124.38
2023-06-09T08:04:53.907Z,126.33
2023-06-09T08:05:53.820Z,124.17
2023-06-09T08:06:53.866Z,121.90
2023-06-09T08:07:53.872Z,122.78
2023-06-09T08:08:53.901Z,121.43
2023-06-09T08:09:54.001Z,121.48
2023-06-09T08:10:54.022Z,120.30
2023-06-09T08:11:54.017Z,117.54
2023-06-09T08:12:54.076Z,116.90
2023-06-09T08:13:54.101Z,117.87
2023-06-09T08:14:54.124Z,116.18
2023-06-09T08:15:54.189Z,116.47
2023-06-09T08:16:54.201Z,109.92
2023-06-09T08:17:54.325Z,111.17
2023-06-09T08:18:54.325Z,114.74
2023-06-09T08:19:54.339Z,113.11
2023-06-09T08:20:54.381Z,113.24
2023-06-09T08:21:54.415Z,113.20
2023-06-09T08:22:55.376Z,112.70
2023-06-09T08:23:54.542Z,109.93
2023-06-09T08:24:54.503Z,109.84
2023-06-09T08:25:54.549Z,109.03
2023-06-09T08:26:54.586Z,109.12
2023-06-09T08:27:54.628Z,105.56
2023-06-09T08:28:54.674Z,106.54
2023-06-09T08:29:54.673Z,104.43
2023-06-09T08:30:54.742Z,103.61
2023-06-09T08:31:54.787Z,105.41
2023-06-09T08:32:54.858Z,102.92
2023-06-09T08:33:54.795Z,105.55
2023-06-09T08:34:54.838Z,102.69
2023-06-09T08:35:54.889Z,102.35
2023-06-09T08:36:54.920Z,103.76
2023-06-09T08:37:54.952Z,105.20
2023-06-09T08:38:54.972Z,102.83
2023-06-09T08:39:55.012Z,101.30
2023-06-09T08:40:55.020Z,101.23
2023-06-09T08:41:55.067Z,101.70
2023-06-09T08:42:55.096Z,102.98
2023-06-09T08:43:55.250Z,96.25
2023-06-09T08:44:55.195Z,99.18
2023-06-09T08:45:55.251Z,99.32
2023-06-09T08:46:55.357Z,94.18
2023-06-09T08:47:55.363Z,93.76
2023-06-09T08:48:55.356Z,93.29
2023-06-09T08:49:55.392Z,93.53
2023-06-09T08:50:55.427Z,90.43
2023-06-09T08:51:55.475Z,93.94
2023-06-09T08:52:55.564Z,92.79
2023-06-09T08:53:55.564Z,94.24
2023-06-09T08:54:55.599Z,94.46
2023-06-09T08:55:55.666Z,92.44
2023-06-09T08:56:55.750Z,92.41
2023-06-09T08:57:55.734Z,92.86
2023-06-09T08:58:55.792Z,88.52
2023-06-09T08:59:55.832Z,87.88
2023-06-09T09:00:55.920Z,91.63
2023-06-09T09:01:55.900Z,89.12
2023-06-09T09:02:56.018Z,90.81
2023-06-09T09:03:56.064Z,88.10
2023-06-09T09:04:56.022Z,85.49
2023-06-09T09:05:56.071Z,85.57
2023-06-09T09:06:56.113Z,87.40
2023-06-09T09:07:56.177Z,85.96
2023-06-09T09:08:56.234Z,84.16
2023-06-09T09:09:56.228Z,83.54
2023-06-09T09:10:56.340Z,85.77
2023-06-09T09:11:56.318Z,84.09
2023-06-09T09:12:56.393Z,85.25
2023-06-09T09:13:56.425Z,82.80
2023-06-09T09:14:56.420Z,80.01
2023-06-09T09:15:56.549Z,85.24
2023-06-09T09:16:56.491Z,81.56
2023-06-09T09:17:56.592Z,80.62
2023-06-09T09:18:56.577Z,82.98
2023-06-09T09:19:56.616Z,81.65
2023-06-09T09:20:56.647Z,83.65
2023-06-09T09:21:56.700Z,82.50
2023-06-09T09:22:56.738Z,80.80
2023-06-09T09:23:56.829Z,82.84
2023-06-09T09:24:56.834Z,81.13
2023-06-09T09:25:56.889Z,81.04
2023-06-09T09:26:56.892Z,83.20
2023-06-09T09:27:56.946Z,80.31
2023-06-09T09:28:56.989Z,80.66
2023-06-09T09:29:57.017Z,83.48
2023-06-09T09:30:57.227Z,79.95
2023-06-09T09:31:57.129Z,85.40
2023-06-09T09:32:57.157Z,83.93
2023-06-09T09:33:57.198Z,83.66
2023-06-09T09:34:57.257Z,82.99
2023-06-09T09:35:57.383Z,82.36
2023-06-09T09:36:57.384Z,83.29
2023-06-09T09:37:57.384Z,85.30
2023-06-09T09:38:57.384Z,82.22
2023-06-09T09:39:57.399Z,78.93
2023-06-09T09:40:57.499Z,82.37
2023-06-09T09:41:57.522Z,81.38
2023-06-09T09:42:57.512Z,83.88
2023-06-09T09:43:57.588Z,81.31
2023-06-09T09:44:57.634Z,79.09
2023-06-09T09:45:57.715Z,80.98
2023-06-09T09:46:57.757Z,77.31
2023-06-09T09:47:57.783Z,79.92
2023-06-09T09:48:57.759Z,80.22
2023-06-09T09:49:57.781Z,79.39
2023-06-09T09:50:57.823Z,80.92
2023-06-09T09:51:57.899Z,84.17
2023-06-09T09:52:57.857Z,81.08
2023-06-09T09:53:57.965Z,81.24
2023-06-09T09:54:58.030Z,83.06
2023-06-09T09:55:58.025Z,85.36
2023-06-09T09:56:58.063Z,81.69
2023-06-09T09:57:58.120Z,81.37
2023-06-09T09:58:58.127Z,83.06
2023-06-09T09:59:58.200Z,84.18
2023-06-09T10:00:58.277Z,82.53
2023-06-09T10:01:58.283Z,81.24
2023-06-09T10:02:58.334Z,82.18
2023-06-09T10:03:58.374Z,81.85
2023-06-09T10:04:58.355Z,81.70
2023-06-09T10:05:58.414Z,84.33
2023-06-09T10:06:58.494Z,78.13
2023-06-09T10:07:59.440Z,79.21
2023-06-09T10:08:58.468Z,80.41
2023-06-09T10:09:58.515Z,83.81
2023-06-09T10:10:58.566Z,84.92
2023-06-09T10:11:59.415Z,80.18
2023-06-09T10:12:58.627Z,72.60
2023-06-09T10:13:58.667Z,75.15
2023-06-09T10:14:58.699Z,77.91
2023-06-09T10:15:58.753Z,80.15
2023-06-09T10:16:58.827Z,78.55
2023-06-09T10:17:58.812Z,78.54
2023-06-09T10:18:58.807Z,79.12
2023-06-09T10:19:58.887Z,78.73
2023-06-09T10:20:58.930Z,80.79
2023-06-09T10:21:58.926Z,78.77
2023-06-09T10:22:58.952Z,78.54
2023-06-09T10:23:59.039Z,77.57
2023-06-09T10:24:59.011Z,79.33
2023-06-09T10:25:59.083Z,80.05
2023-06-09T10:26:59.078Z,82.42
2023-06-09T10:27:59.155Z,84.56
2023-06-09T10:28:59.168Z,82.17
2023-06-09T10:29:59.221Z,82.21
2023-06-09T10:30:59.222Z,84.49
2023-06-09T10:31:59.345Z,84.85
2023-06-09T10:32:59.310Z,84.77
2023-06-09T10:33:59.325Z,85.78
2023-06-09T10:34:59.382Z,85.40
2023-06-09T10:35:59.686Z,86.99
2023-06-09T10:36:59.425Z,84.08
2023-06-09T10:37:59.439Z,86.78
2023-06-09T10:38:59.508Z,84.19
2023-06-09T10:39:59.516Z,84.54
2023-06-09T10:40:59.598Z,84.25
2023-06-09T10:42:00.635Z,86.20
2023-06-09T10:42:59.676Z,84.18
2023-06-09T10:43:59.688Z,78.56
2023-06-09T10:44:59.762Z,82.58
2023-06-09T10:45:59.766Z,83.76
2023-06-09T10:46:59.844Z,80.25
2023-06-09T10:47:59.905Z,81.07
2023-06-09T10:48:59.881Z,76.44
2023-06-09T10:49:59.900Z,78.82
2023-06-09T10:50:59.930Z,78.50
2023-06-09T10:51:59.937Z,79.75
2023-06-09T10:53:00.120Z,79.60
2023-06-09T10:54:00.060Z,75.93
2023-06-09T10:55:00.095Z,76.91
2023-06-09T10:56:00.118Z,73.91
2023-06-09T10:57:00.169Z,75.72
2023-06-09T10:58:00.186Z,79.96
2023-06-09T10:59:00.212Z,77.23
2023-06-09T11:00:00.228Z,74.12
2023-06-09T11:01:00.262Z,71.94
2023-06-09T11:02:00.587Z,71.71
2023-06-09T11:03:00.438Z,72.49
2023-06-09T11:04:00.428Z,72.28
2023-06-09T11:05:00.439Z,67.82
2023-06-09T11:06:00.452Z,67.88
2023-06-09T11:07:00.502Z,71.81
2023-06-09T11:08:00.502Z,68.39
2023-06-09T11:09:00.540Z,68.89
2023-06-09T11:10:00.563Z,68.99
2023-06-09T11:11:00.649Z,66.59
2023-06-09T11:12:00.641Z,67.53
2023-06-09T11:13:00.665Z,65.37
2023-06-09T11:14:00.677Z,66.65
2023-06-09T11:15:01.125Z,66.46
2023-06-09T11:16:00.725Z,66.70
2023-06-09T11:17:00.790Z,63.90
2023-06-09T11:18:00.832Z,64.57
2023-06-09T11:19:00.874Z,60.13
2023-06-09T11:20:00.911Z,61.47
2023-06-09T11:21:00.899Z,56.80
2023-06-09T11:22:00.898Z,54.04
2023-06-09T11:23:01.097Z,59.66
2023-06-09T11:24:01.203Z,57.78
2023-06-09T11:25:01.003Z,59.05
2023-06-09T11:26:01.031Z,69.90
2023-06-09T11:27:01.013Z,74.22
2023-06-09T11:28:01.066Z,74.91
2023-06-09T11:29:01.088Z,75.32
2023-06-09T11:30:01.119Z,85.18
2023-06-09T11:31:01.137Z,86.33
2023-06-09T11:32:01.239Z,96.47
2023-06-09T11:33:01.174Z,99.03
2023-06-09T11:34:01.154Z,102.56
2023-06-09T11:35:01.198Z,104.82
2023-06-09T11:36:01.234Z,102.59
2023-06-09T11:37:01.209Z,107.75
2023-06-09T11:38:01.243Z,111.21
2023-06-09T11:39:01.267Z,111.75
2023-06-09T11:40:01.295Z,107.28
2023-06-09T11:41:01.316Z,110.60
2023-06-09T11:42:01.335Z,111.93
2023-06-09T11:43:01.351Z,111.03
2023-06-09T11:44:01.403Z,110.03
2023-06-09T11:45:01.402Z,109.34
2023-06-09T11:46:01.446Z,110.70
2023-06-09T11:47:01.386Z,105.85
2023-06-09T11:48:01.653Z,109.80
2023-06-09T11:49:01.503Z,106.71
2023-06-09T11:50:01.477Z,108.85
2023-06-09T11:51:01.494Z,106.72
2023-06-09T11:52:01.496Z,105.32
2023-06-09T11:53:01.547Z,103.42
2023-06-09T11:54:01.560Z,103.49
2023-06-09T11:55:01.564Z,103.94
2023-06-09T11:56:01.605Z,105.52
2023-06-09T11:57:01.597Z,110.09
2023-06-09T11:58:01.637Z,106.12
2023-06-09T11:59:01.603Z,108.72
2023-06-09T12:00:01.649Z,108.01
2023-06-09T12:01:01.658Z,105.14
2023-06-09T12:02:01.706Z,108.49
2023-06-09T12:03:01.796Z,107.27
2023-06-09T12:04:01.670Z,108.22
2023-06-09T12:05:01.735Z,106.31
2023-06-09T12:06:01.748Z,111.65
2023-06-09T12:07:01.738Z,108.65
2023-06-09T12:08:01.778Z,107.31
2023-06-09T12:09:01.743Z,110.10
2023-06-09T12:10:01.767Z,108.65
2023-06-09T12:11:01.722Z,109.76
2023-06-09T12:12:01.835Z,112.26
2023-06-09T12:13:01.788Z,110.89
2023-06-09T12:14:01.788Z,110.67
2023-06-09T12:15:01.791Z,113.09
2023-06-09T12:16:01.831Z,109.75
2023-06-09T12:17:01.847Z,114.66
2023-06-09T12:18:01.914Z,112.55
2023-06-09T12:19:01.902Z,112.63
2023-06-09T12:20:01.930Z,114.06
2023-06-09T12:21:01.925Z,115.41
2023-06-09T12:22:02.001Z,115.96
2023-06-09T12:23:04.486Z,114.42
2023-06-09T12:24:01.977Z,114.53
2023-06-09T12:25:01.926Z,119.83
2023-06-09T12:26:01.890Z,116.35
2023-06-09T12:27:01.903Z,112.61
2023-06-09T12:28:01.942Z,118.09
2023-06-09T12:29:01.965Z,115.85
2023-06-09T12:30:01.926Z,116.69
2023-06-09T12:31:01.889Z,116.10
2023-06-09T12:32:01.881Z,115.70
2023-06-09T12:33:02.067Z,119.03
2023-06-09T12:34:01.860Z,118.97
2023-06-09T12:35:01.886Z,117.37
2023-06-09T12:36:01.870Z,117.85
2023-06-09T12:37:01.842Z,121.78
2023-06-09T12:38:01.865Z,119.09
2023-06-09T12:39:01.854Z,118.81
2023-06-09T12:40:01.836Z,119.62
2023-06-09T12:41:01.821Z,117.98
2023-06-09T12:42:01.796Z,121.61
2023-06-09T12:43:01.809Z,118.20
2023-06-09T12:44:01.790Z,119.31